Latest Weather Observations for Kingaroy

IDQ60901

Issued at 2:45 pm EST Tuesday 29 July 2014 (issued every 10 minutes, with the page automatically refreshed every 10 minutes)

About weather observations | Map of Brisbane area stations | Latest observations for Brisbane area | Other Formats
Station Details ID: 040922 Name: KINGAROY AIRPORT Lat: -26.57 Lon: 151.84 Height: 433.67 m
Data from the previous 72 hours. | See also: Recent months at Kingaroy
Date/Time
EST
Tmp

°C
App
Tmp
°C
Dew
Point
°C
Rel
Hum
%
Delta-T

°C
Wind Press
QNH
hPa
Press
MSL
hPa
Rain
since
9 am
mm
Dir
 
Spd
km/h
Gust
km/h
Spd
kts
Gust
kts
29/02:30pm 22.4 17.1 -0.3 22 10.4 SW 17 30 9 16 1020.5 - 0.0
29/02:00pm 22.0 16.1 -0.7 22 10.3 SW 20 30 11 16 1020.7 1020.7 0.0
29/01:30pm 22.7 16.9 -0.1 22 10.5 WSW 20 28 11 15 1020.8 - 0.0
29/01:00pm 22.5 16.9 -0.3 22 10.4 WSW 19 30 10 16 1021.3 1021.2 0.0
29/12:30pm 21.5 16.1 2.2 28 9.2 NW 20 32 11 17 1021.9 - 0.0
29/12:00pm 20.9 15.6 1.7 28 9.0 WNW 19 30 10 16 1022.3 1022.3 0.0
29/11:30am 20.9 15.4 1.7 28 9.0 WNW 20 28 11 15 1022.9 - 0.0
29/11:00am 19.3 15.8 5.4 40 6.9 NW 13 20 7 11 1023.4 1023.4 0.0
29/10:30am 18.3 14.7 6.8 47 5.9 NNW 15 20 8 11 1023.7 - 0.0
29/10:00am 16.1 13.0 7.1 55 4.5 NW 13 19 7 10 1024.0 1024.0 0.0
29/09:30am 14.1 11.2 6.7 61 3.6 NW 11 19 6 10 1024.2 - 0.0
29/09:00am 12.0 10.4 4.5 60 3.5 NW 2 7 1 4 1024.3 1024.3 0.0
29/08:30am 8.6 7.3 4.0 73 2.1 CALM 0 0 0 0 1024.3 - 0.0
29/08:00am 5.0 3.4 2.5 84 1.0 CALM 0 0 0 0 1024.3 1024.3 0.0
29/07:30am 1.1 -0.9 -0.1 92 0.4 CALM 0 0 0 0 1024.1 - 0.0
29/07:00am -0.7 -3.0 -2.1 90 0.5 CALM 0 0 0 0 1023.9 1023.9 0.0
29/06:30am -0.7 -2.9 -1.7 93 0.3 CALM 0 0 0 0 1023.7 - 0.0
29/06:00am -1.0 -3.3 -2.6 89 0.5 CALM 0 0 0 0 1023.3 1023.3 0.0
29/05:30am -1.1 -3.5 -2.8 88 0.5 CALM 0 0 0 0 1023.0 - 0.0
29/05:00am -0.9 -3.3 -2.8 87 0.6 CALM 0 0 0 0 1022.7 1022.7 0.0
29/04:30am -0.3 -2.5 -1.7 90 0.5 CALM 0 0 0 0 1022.4 - 0.0
29/04:00am -0.3 -2.6 -2.2 87 0.6 CALM 0 0 0 0 1022.2 1022.2 0.0
29/03:30am -0.6 -2.9 -2.5 87 0.6 CALM 0 0 0 0 1022.0 - 0.0
29/03:00am -0.2 -2.4 -1.9 88 0.6 CALM 0 6 0 3 1022.0 1022.0 0.0
29/02:30am 0.0 -3.6 -1.9 87 0.7 S 7 9 4 5 1022.0 - 0.0
29/02:00am 0.0 -3.1 -2.4 84 0.8 SSE 4 9 2 5 1022.3 1022.3 0.0
29/01:30am 1.6 -1.8 -0.8 84 0.9 S 7 7 4 4 1022.6 - 0.0
29/01:00am 1.7 -0.5 -1.2 81 1.1 CALM 0 0 0 0 1022.8 1022.8 0.0
29/12:30am 1.8 -0.4 -1.8 77 1.3 CALM 0 0 0 0 1023.1 - 0.0
29/12:00am 2.5 0.5 -0.4 81 1.1 S 0 0 0 0 1023.1 1023.1 0.0
 
Date/Time
EST
Tmp

°C
App
Tmp
°C
Dew
Point
°C
Rel
Hum
%
Delta-T

°C
Wind Press
QNH
hPa
Press
MSL
hPa
Rain
since
9 am
mm
Dir
 
Spd
km/h
Gust
km/h
Spd
kts
Gust
kts
28/11:30pm 2.5 0.1 -0.6 80 1.2 S 2 9 1 5 1023.3 - 0.0
28/11:00pm 2.9 0.8 -0.9 76 1.4 CALM 0 0 0 0 1023.3 1023.3 0.0
28/10:30pm 4.0 2.0 0.2 76 1.5 CALM 0 0 0 0 1023.3 - 0.0
28/10:00pm 4.0 1.9 -0.6 72 1.7 CALM 0 0 0 0 1023.3 1023.3 0.0
28/09:30pm 5.2 3.2 0.2 70 2.0 CALM 0 0 0 0 1023.3 - 0.0
28/09:00pm 5.5 2.4 0.3 69 2.1 S 6 7 3 4 1023.2 1023.2 0.0
28/08:30pm 6.4 3.3 -0.1 63 2.6 S 6 7 3 4 1023.1 - 0.0
28/08:00pm 6.8 4.4 -0.2 61 2.8 SE 2 9 1 5 1022.9 1022.9 0.0
28/07:30pm 8.2 6.2 0.2 57 3.3 CALM 0 0 0 0 1022.7 - 0.0
28/07:00pm 9.0 6.0 0.5 55 3.5 E 6 7 3 4 1022.4 1022.4 0.0
28/06:30pm 10.9 7.7 0.9 50 4.3 SE 7 9 4 5 1022.1 - 0.0
28/06:00pm 13.1 9.5 0.5 42 5.4 S 9 9 5 5 1021.9 1021.9 0.0
28/05:30pm 14.8 11.1 -0.1 36 6.4 SW 9 11 5 6 1021.7 - 0.0
28/05:00pm 18.5 14.4 -0.3 28 8.3 WSW 11 13 6 7 1021.6 1021.5 0.0
28/04:30pm 19.6 15.1 -0.4 26 8.9 WSW 13 17 7 9 1021.4 - 0.0
28/04:00pm 20.4 16.3 -0.3 25 9.3 WSW 11 17 6 9 1021.0 1021.0 0.0
28/03:30pm 20.4 15.9 -0.3 25 9.3 SW 13 17 7 9 1021.0 - 0.0
28/03:00pm 20.7 16.5 1.6 28 8.9 W 13 24 7 13 1021.1 1021.1 0.0
28/02:30pm 20.4 15.9 -0.3 25 9.3 WNW 13 19 7 10 1021.4 - 0.0
28/02:00pm 20.1 15.6 -0.5 25 9.2 WNW 13 20 7 11 1021.6 1021.5 0.0
28/01:30pm 19.8 15.2 -0.8 25 9.2 W 13 20 7 11 1021.9 - 0.0
28/01:00pm 19.3 14.5 0.4 28 8.5 W 15 20 8 11 1022.5 1022.5 0.0
28/12:30pm 20.0 15.6 0.5 27 8.9 W 13 30 7 16 1022.9 - 0.0
28/12:00pm 19.6 14.2 1.1 29 8.5 W 19 24 10 13 1023.4 1023.4 0.0
28/11:30am 18.4 14.0 2.7 35 7.4 NNW 15 24 8 13 1024.1 - 0.0
28/11:00am 17.9 13.5 2.6 36 7.1 NW 15 20 8 11 1024.7 1024.7 0.0
28/10:30am 17.2 13.6 5.2 45 5.9 NNW 13 20 7 11 1025.1 - 0.0
28/10:00am 15.7 13.4 5.9 52 4.8 NW 7 13 4 7 1025.3 1025.3 0.0
28/09:30am 13.4 12.0 5.6 59 3.8 WSW 2 6 1 3 1025.4 - 0.0
28/09:00am 10.5 9.4 5.1 69 2.5 CALM 0 6 0 3 1025.2 1025.2 0.0
28/08:30am 7.0 5.6 3.8 80 1.4 CALM 0 0 0 0 1024.9 - 0.0
28/08:00am 3.6 2.0 2.7 94 0.4 CALM 0 0 0 0 1024.7 1024.7 0.0
28/07:30am 0.6 -1.4 0.2 97 0.1 CALM 0 0 0 0 1024.6 - 0.0
28/07:00am -0.7 -4.2 -1.5 94 0.2 S 7 9 4 5 1024.7 1024.7 0.0
28/06:30am -0.4 -2.9 -1.1 95 0.2 E 2 7 1 4 1024.4 - 0.0
28/06:00am -0.2 -2.3 -0.9 95 0.2 CALM 0 0 0 0 1024.2 1024.2 0.0
28/05:30am -0.7 -2.9 -1.8 92 0.4 CALM 0 0 0 0 1023.9 - 0.0
28/05:00am 0.5 -1.5 -0.2 95 0.3 CALM 0 0 0 0 1023.7 1023.6 0.0
28/04:30am 0.1 -2.0 -1.0 92 0.4 CALM 0 0 0 0 1023.4 - 0.0
28/04:00am 0.5 -1.5 -0.4 94 0.3 CALM 0 0 0 0 1023.4 1023.4 0.0
28/03:30am 0.1 -2.4 -1.3 90 0.5 S 2 7 1 4 1023.5 - 0.0
28/03:00am 0.9 -2.3 -0.4 91 0.5 S 6 9 3 5 1023.4 1023.4 0.0
28/02:30am 1.9 0.1 0.9 93 0.4 CALM 0 0 0 0 1023.5 - 0.0
28/02:00am 1.4 -0.6 -0.4 88 0.7 CALM 0 0 0 0 1023.8 1023.7 0.0
28/01:30am 1.7 -0.3 -0.2 87 0.7 CALM 0 0 0 0 1024.1 - 0.0
28/01:00am 2.4 0.5 0.5 87 0.7 CALM 0 0 0 0 1024.2 1024.2 0.0
28/12:30am 3.2 1.0 0.9 85 0.9 S 2 7 1 4 1024.4 - 0.0
28/12:00am 2.8 0.8 0.0 82 1.1 CALM 0 0 0 0 1024.5 1024.5 0.0
 
Date/Time
EST
Tmp

°C
App
Tmp
°C
Dew
Point
°C
Rel
Hum
%
Delta-T

°C
Wind Press
QNH
hPa
Press
MSL
hPa
Rain
since
9 am
mm
Dir
 
Spd
km/h
Gust
km/h
Spd
kts
Gust
kts
27/11:30pm 4.2 2.5 1.6 83 1.1 CALM 0 0 0 0 1024.6 - 0.0
27/11:00pm 3.9 2.0 0.6 79 1.3 CALM 0 0 0 0 1024.6 1024.6 0.0
27/10:30pm 5.1 2.3 1.8 79 1.4 E 6 7 3 4 1024.5 - 0.0
27/10:00pm 5.4 3.7 1.7 77 1.5 CALM 0 0 0 0 1024.6 1024.6 0.0
27/09:30pm 5.8 4.0 1.0 71 1.9 CALM 0 6 0 3 1024.7 - 0.0
27/09:00pm 7.5 4.2 2.2 69 2.2 S 9 11 5 6 1024.6 1024.6 0.0
27/08:30pm 6.0 3.0 0.8 69 2.1 S 6 11 3 6 1024.5 - 0.0
27/08:00pm 9.1 6.1 2.2 62 3.0 SSE 7 11 4 6 1024.4 1024.4 0.0
27/07:30pm 11.2 7.9 2.5 55 3.8 S 9 11 5 6 1024.3 - 0.0
27/07:00pm 12.0 9.1 2.5 52 4.2 S 7 9 4 5 1024.0 1024.0 0.0
27/06:30pm 10.6 6.8 1.9 55 3.8 S 11 13 6 7 1023.9 - 0.0
27/06:00pm 13.8 9.6 1.8 44 5.3 S 13 15 7 8 1023.4 1023.4 0.0
27/05:30pm 14.0 8.9 1.0 41 5.7 S 17 19 9 10 1023.1 - 0.0
27/05:00pm 17.5 11.9 0.2 31 7.7 SSW 19 24 10 13 1022.8 1022.8 0.0
27/04:30pm 18.9 14.6 3.1 35 7.5 SSW 15 20 8 11 1022.5 - 0.0
27/04:00pm 19.5 14.4 3.2 34 7.8 S 19 26 10 14 1022.3 1022.3 0.0
27/03:30pm 20.0 14.0 1.0 28 8.8 S 22 30 12 16 1022.3 - 0.0
27/03:00pm 20.4 14.6 -0.3 25 9.3 S 20 26 11 14 1022.3 1022.3 0.0
27/02:30pm 20.6 16.4 -1.2 23 9.7 SW 11 20 6 11 1022.4 - 0.0
27/02:00pm 20.5 15.6 -0.7 24 9.5 SSW 15 22 8 12 1022.4 1022.4 0.0
27/01:30pm 20.1 13.7 -1.7 23 9.5 SSW 22 28 12 15 1022.7 - 0.0
27/01:00pm 20.4 14.7 0.8 27 9.0 S 20 28 11 15 1022.9 1022.9 0.0
27/12:30pm 20.4 14.7 0.8 27 9.0 S 20 26 11 14 1023.2 - 0.0
27/12:00pm 20.0 15.0 1.4 29 8.6 SW 17 26 9 14 1023.8 1023.7 0.0
27/11:30am 19.4 14.0 2.3 32 8.1 SW 20 30 11 16 1024.4 - 0.0
27/11:00am 18.8 12.7 2.6 34 7.6 SSW 24 35 13 19 1024.8 1024.8 0.0
27/10:30am 19.0 13.6 4.7 39 7.0 SW 22 33 12 18 1025.1 - 0.0
27/10:00am 17.9 14.2 7.9 52 5.2 SW 17 26 9 14 1025.3 1025.3 0.0
27/09:30am 16.8 13.0 7.4 54 4.8 SSW 17 20 9 11 1025.3 - 0.0
27/09:00am 14.8 14.2 11.8 82 1.6 WNW 6 9 3 5 1025.2 1025.2 2.2
27/08:30am 12.2 12.8 12.0 99 0.1 CALM 0 2 0 1 1025.2 - 2.2
27/08:00am 9.6 9.5 9.5 99 0.1 CALM 0 0 0 0 1025.1 1025.1 2.2
27/07:30am 6.2 5.3 6.1 99 0.0 CALM 0 0 0 0 1025.0 - 2.2
27/07:00am 5.2 4.1 5.1 99 0.0 CALM 0 0 0 0 1024.8 1024.8 2.2
27/06:30am 5.7 4.7 5.6 99 0.0 CALM 0 0 0 0 1024.6 - 2.2
27/06:00am 6.8 6.0 6.7 99 0.0 CALM 0 0 0 0 1024.3 1024.3 2.2
27/05:30am 6.0 5.0 5.7 98 0.1 CALM 0 0 0 0 1024.1 - 2.2
27/05:00am 8.4 7.6 8.3 99 0.0 E 2 7 1 4 1024.0 1024.0 2.2
27/04:30am 7.2 6.5 7.1 99 0.0 CALM 0 0 0 0 1023.9 - 2.2
27/04:00am 7.8 7.3 7.7 99 0.0 CALM 0 0 0 0 1023.8 1023.7 2.2
27/03:30am 7.5 6.9 7.2 98 0.1 CALM 0 0 0 0 1023.9 - 2.2
27/03:00am 7.6 7.0 7.3 98 0.1 CALM 0 0 0 0 1024.1 1024.1 2.2
27/02:30am 8.1 7.6 7.8 98 0.1 CALM 0 0 0 0 1024.4 - 2.2
27/02:00am 8.5 8.1 8.2 98 0.1 CALM 0 0 0 0 1024.5 1024.5 2.2
27/01:30am 8.8 8.4 8.4 97 0.2 CALM 0 0 0 0 1024.5 - 2.2
27/01:00am 9.8 9.7 9.3 97 0.3 CALM 0 0 0 0 1024.7 1024.7 2.0
27/12:30am 10.1 10.0 9.5 96 0.3 CALM 0 0 0 0 1025.1 - 2.0
27/12:00am 11.6 12.0 11.1 97 0.3 CALM 0 0 0 0 1025.3 1025.3 2.0
 
Date/Time
EST
Tmp

°C
App
Tmp
°C
Dew
Point
°C
Rel
Hum
%
Delta-T

°C
Wind Press
QNH
hPa
Press
MSL
hPa
Rain
since
9 am
mm
Dir
 
Spd
km/h
Gust
km/h
Spd
kts
Gust
kts
26/11:30pm 12.2 12.8 11.9 98 0.2 CALM 0 0 0 0 1025.5 - 2.0
26/11:00pm 12.4 13.0 11.9 97 0.3 CALM 0 0 0 0 1025.6 1025.6 2.0
26/10:30pm 12.9 13.7 12.4 97 0.3 CALM 0 0 0 0 1025.6 - 2.0
26/10:00pm 13.2 14.0 12.7 97 0.3 CALM 0 0 0 0 1025.8 1025.9 2.0
26/09:30pm 13.4 14.3 12.8 96 0.3 CALM 0 0 0 0 1025.7 - 2.0
26/09:00pm 13.7 14.7 13.1 96 0.3 CALM 0 0 0 0 1025.7 1025.8 2.0
26/08:30pm 13.7 13.5 13.1 96 0.3 W 6 9 3 5 1025.7 - 2.0
26/08:00pm 13.7 13.3 13.1 96 0.3 W 7 7 4 4 1025.7 1025.8 2.0
26/07:30pm 13.8 13.5 13.3 97 0.3 NNW 7 9 4 5 1025.6 - 2.0
26/07:00pm 13.8 13.7 13.2 96 0.3 NNE 6 7 3 4 1025.8 1025.9 2.0
26/06:30pm 13.9 13.5 13.1 95 0.4 N 7 11 4 6 1025.6 - 2.0
26/06:00pm 14.2 13.7 12.8 91 0.8 SW 7 13 4 7 1025.9 1026.0 1.8
26/05:30pm 15.7 14.8 12.6 82 1.7 SW 9 22 5 12 1025.6 - 0.4
26/05:00pm 16.7 17.4 13.4 81 1.9 E 2 6 1 3 1024.9 1024.9 0.0
26/04:30pm 16.9 16.8 13.4 80 2.0 N 6 7 3 4 1024.7 - 0.0
26/04:00pm 16.5 15.6 13.6 83 1.7 N 11 19 6 10 1024.6 1024.6 0.0
26/03:30pm 19.1 17.3 12.1 64 4.0 N 13 17 7 9 1024.5 - 0.0
26/03:00pm 19.3 17.1 12.1 63 4.1 N 15 19 8 10 1024.5 1024.5 0.0

Latest Capital City Observations: Canberra | Sydney | Melbourne | Brisbane | Adelaide | Perth | Hobart | Darwin

Other Formats:

Comma delimited format used in spreadsheet applications
http://www.bom.gov.au/fwo/IDQ60901/IDQ60901.94549.axf

JavaScript Object Notation format (JSON) in row-major order
http://www.bom.gov.au/fwo/IDQ60901/IDQ60901.94549.json